ドーハ の空港の天気 - METARとTAF

ドーハ国際空港 ( OTBD / DOH ) - カタール ドーハ
飛行場実況気象(Metar)
観測時間11/22 15:00 AST (11/22 12:00 UTC)
風向・風速南東 7m/s
視程10km以上
天気現象
なし
気温29℃
湿度27%
気圧1010hPa
METAROTBD 221200Z 14014KT CAVOK 29/08 Q1010 NOSIG
過去の天気等 Google飛行場航空写真 Wunderground天気予報

過去48時間のMETAR

飛行場予報(TAF)
発表時間: 11/22 14:02 AST (11/22 11:02 UTC)
予報対象時間: 22日15時 AST ~ 23日21時 AST
風向・風速南東 5m/s
視程10km以上
なし
22日16時 AST ~ 23日6時 AST に一時的に
視程10km以上
少しの雲 雲底高度 1,220m
全天の8割程度の雲 雲底高度 3,660m
23日6時 AST ~ 23日8時 AST に徐々に
風向・風速西南西 4m/s
23日15時 AST ~ 23日17時 AST に徐々に
風向・風速北 5m/s
TAF OTBD 221102Z 2212/2318 14009KT CAVOK
TEMPO 2213/2303 9999 FEW040 BKN120
BECMG 2303/2305 24007KT
BECMG 2312/2314 36009KT